createdAt,value
2023-09-17T00:01:24.949Z,5.40
2023-09-17T00:03:53.551Z,6.40
2023-09-17T00:06:21.829Z,6.25
2023-09-17T00:08:49.063Z,6.55
2023-09-17T00:11:16.554Z,5.72
2023-09-17T00:13:43.852Z,7.00
2023-09-17T00:16:14.199Z,6.00
2023-09-17T00:18:41.394Z,5.65
2023-09-17T00:21:08.635Z,5.85
2023-09-17T00:23:35.920Z,6.57
2023-09-17T00:26:07.832Z,5.15
2023-09-17T00:28:34.986Z,5.60
2023-09-17T00:31:02.205Z,7.00
2023-09-17T00:33:29.353Z,5.78
2023-09-17T00:35:56.611Z,6.13
2023-09-17T00:38:23.788Z,7.95
2023-09-17T00:40:50.966Z,6.45
2023-09-17T00:43:19.198Z,6.30
2023-09-17T00:45:47.737Z,5.95
2023-09-17T00:48:14.925Z,5.72
2023-09-17T00:50:42.195Z,5.45
2023-09-17T00:53:09.842Z,6.07
2023-09-17T00:55:37.736Z,4.80
2023-09-17T00:58:05.604Z,8.00
2023-09-17T01:00:38.153Z,6.28
2023-09-17T01:03:06.137Z,6.40
2023-09-17T01:05:38.426Z,5.30
2023-09-17T01:08:07.633Z,7.40
2023-09-17T01:10:35.755Z,6.03
2023-09-17T01:13:06.055Z,5.95
2023-09-17T01:15:35.133Z,6.73
2023-09-17T01:18:03.400Z,5.93
2023-09-17T01:20:33.370Z,5.28
2023-09-17T01:23:05.790Z,6.40
2023-09-17T01:25:34.751Z,6.47
2023-09-17T01:28:02.893Z,6.68
2023-09-17T01:30:30.047Z,8.40
2023-09-17T01:32:57.217Z,8.48
2023-09-17T01:35:24.621Z,5.88
2023-09-17T01:37:55.909Z,6.18
2023-09-17T01:40:23.194Z,7.45
2023-09-17T01:42:51.306Z,6.85
2023-09-17T01:45:18.670Z,6.25
2023-09-17T01:47:47.382Z,5.47
2023-09-17T01:50:17.080Z,7.30
2023-09-17T01:52:45.653Z,6.28
2023-09-17T01:55:13.670Z,6.50
2023-09-17T01:57:42.222Z,8.35
2023-09-17T02:00:18.319Z,5.88
2023-09-17T02:02:48.962Z,7.43
2023-09-17T02:05:18.068Z,8.15
2023-09-17T02:07:45.828Z,6.55
2023-09-17T02:10:13.469Z,6.05
2023-09-17T02:12:40.680Z,6.20
2023-09-17T02:15:10.648Z,9.00
2023-09-17T02:17:38.012Z,6.65
2023-09-17T02:20:09.607Z,5.40
2023-09-17T02:22:36.915Z,5.88
2023-09-17T02:25:04.977Z,5.25
2023-09-17T02:27:32.129Z,5.38
2023-09-17T02:29:59.306Z,5.03
2023-09-17T02:32:29.518Z,6.60
2023-09-17T02:34:57.637Z,5.30
2023-09-17T02:37:25.096Z,5.20
2023-09-17T02:39:52.291Z,8.70
2023-09-17T02:42:19.530Z,7.03
2023-09-17T02:44:46.672Z,6.00
2023-09-17T02:47:13.956Z,7.15
2023-09-17T02:49:41.189Z,6.32
2023-09-17T02:52:08.444Z,8.00
2023-09-17T02:54:36.268Z,5.93
2023-09-17T02:57:03.502Z,6.68
2023-09-17T02:59:30.727Z,6.50
2023-09-17T03:01:58.064Z,6.47
2023-09-17T03:04:29.203Z,5.68
2023-09-17T03:06:56.478Z,6.65
2023-09-17T03:09:23.688Z,6.13
2023-09-17T03:11:50.857Z,6.35
2023-09-17T03:14:18.079Z,6.20
2023-09-17T03:16:45.280Z,7.07
2023-09-17T03:19:15.850Z,6.32
2023-09-17T03:21:43.059Z,5.00
2023-09-17T03:24:10.528Z,5.90
2023-09-17T03:26:39.207Z,5.35
2023-09-17T03:29:08.684Z,7.70
2023-09-17T03:31:36.298Z,5.20
2023-09-17T03:34:04.356Z,6.32
2023-09-17T03:36:31.717Z,6.65
2023-09-17T03:38:59.628Z,5.32
2023-09-17T03:41:26.787Z,8.43
2023-09-17T03:43:54.499Z,6.03
2023-09-17T03:46:21.844Z,6.57
2023-09-17T03:48:49.067Z,5.65
2023-09-17T03:51:16.233Z,5.95
2023-09-17T03:53:44.569Z,7.18
2023-09-17T03:56:13.717Z,7.22
2023-09-17T03:58:40.937Z,4.93
2023-09-17T04:01:09.482Z,5.03
2023-09-17T04:03:37.925Z,5.88
2023-09-17T04:06:06.014Z,8.32
2023-09-17T04:08:33.235Z,5.60
2023-09-17T04:11:00.480Z,4.72
2023-09-17T04:13:30.572Z,5.60
2023-09-17T04:15:57.915Z,5.22
2023-09-17T04:18:25.724Z,8.50
2023-09-17T04:20:52.932Z,5.55
2023-09-17T04:23:20.240Z,6.00
2023-09-17T04:25:47.491Z,5.32
2023-09-17T04:28:14.756Z,7.95
2023-09-17T04:30:42.069Z,6.55
2023-09-17T04:33:09.336Z,6.75
2023-09-17T04:35:36.570Z,6.38
2023-09-17T04:38:04.297Z,6.28
2023-09-17T04:40:31.586Z,6.47
2023-09-17T04:42:58.856Z,8.18
2023-09-17T04:45:34.676Z,8.70
2023-09-17T04:48:02.084Z,6.18
2023-09-17T04:50:29.754Z,8.27
2023-09-17T04:52:57.517Z,7.20
2023-09-17T04:55:26.207Z,7.93
2023-09-17T04:57:53.701Z,8.88
2023-09-17T05:00:23.728Z,6.95
2023-09-17T05:02:51.211Z,7.78
2023-09-17T05:05:22.410Z,7.40
2023-09-17T05:07:52.507Z,8.35
2023-09-17T05:10:19.858Z,9.00
2023-09-17T05:12:47.249Z,7.87
2023-09-17T05:15:14.412Z,8.35
2023-09-17T05:17:41.849Z,7.90
2023-09-17T05:20:09.438Z,7.72
2023-09-17T05:22:36.978Z,7.95
2023-09-17T05:25:07.789Z,8.60
2023-09-17T05:27:35.103Z,8.15
2023-09-17T05:30:02.604Z,8.40
2023-09-17T05:32:30.161Z,7.10
2023-09-17T05:35:04.466Z,7.55
2023-09-17T05:37:31.796Z,6.85
2023-09-17T05:39:59.519Z,7.83
2023-09-17T05:42:26.674Z,8.70
2023-09-17T05:44:54.002Z,9.00
2023-09-17T05:47:21.299Z,6.43
2023-09-17T05:49:48.472Z,7.60
2023-09-17T05:52:17.230Z,6.32
2023-09-17T05:54:44.408Z,7.70
2023-09-17T05:57:12.340Z,7.28
2023-09-17T05:59:39.494Z,6.97
2023-09-17T06:02:07.447Z,6.07
2023-09-17T06:04:34.640Z,7.38
2023-09-17T06:07:01.732Z,7.07
2023-09-17T06:09:28.903Z,6.88
2023-09-17T06:11:58.178Z,7.03
2023-09-17T06:14:25.554Z,6.53
2023-09-17T06:16:58.136Z,9.00
2023-09-17T06:19:28.490Z,7.07
2023-09-17T06:21:55.816Z,7.55
2023-09-17T06:24:23.145Z,7.03
2023-09-17T06:26:50.348Z,7.13
2023-09-17T06:29:17.534Z,6.57
2023-09-17T06:31:44.778Z,7.00
2023-09-17T06:34:12.263Z,7.00
2023-09-17T06:36:39.739Z,6.70
2023-09-17T06:39:07.523Z,6.55
2023-09-17T06:41:38.171Z,8.57
2023-09-17T06:44:07.188Z,7.07
2023-09-17T06:46:35.076Z,7.25
2023-09-17T06:49:02.315Z,8.15
2023-09-17T06:51:29.456Z,7.47
2023-09-17T06:53:56.632Z,7.22
2023-09-17T06:56:25.082Z,6.75
2023-09-17T06:58:52.608Z,9.30
2023-09-17T07:01:20.451Z,7.00
2023-09-17T07:03:48.248Z,6.30
2023-09-17T07:06:15.676Z,6.30
2023-09-17T07:08:42.832Z,5.97
2023-09-17T07:11:09.995Z,7.40
2023-09-17T07:13:39.724Z,5.47
2023-09-17T07:16:07.238Z,5.22
2023-09-17T07:18:35.565Z,6.17
2023-09-17T07:21:02.814Z,6.05
2023-09-17T07:23:31.096Z,5.38
2023-09-17T07:25:58.283Z,5.57
2023-09-17T07:28:26.836Z,7.53
2023-09-17T07:30:56.766Z,6.65
2023-09-17T07:33:24.398Z,8.48
2023-09-17T07:35:51.756Z,5.37
2023-09-17T07:38:19.183Z,5.25
2023-09-17T07:40:48.120Z,7.43
2023-09-17T07:43:15.447Z,6.90
2023-09-17T07:45:42.646Z,5.97
2023-09-17T07:48:09.961Z,5.05
2023-09-17T07:50:37.282Z,5.10
2023-09-17T07:53:05.372Z,4.93
2023-09-17T07:55:32.671Z,6.53
2023-09-17T07:57:59.919Z,4.72
2023-09-17T08:00:27.132Z,6.53
2023-09-17T08:02:54.523Z,9.50
2023-09-17T08:05:21.858Z,6.38
2023-09-17T08:07:49.328Z,6.05
2023-09-17T08:10:16.673Z,4.93
2023-09-17T08:12:43.854Z,5.38
2023-09-17T08:15:11.058Z,5.40
2023-09-17T08:17:38.345Z,6.57
2023-09-17T08:20:08.431Z,4.80
2023-09-17T08:22:35.751Z,4.78
2023-09-17T08:25:03.597Z,4.50
2023-09-17T08:27:31.376Z,8.57
2023-09-17T08:30:00.980Z,4.35
2023-09-17T08:32:28.452Z,4.07
2023-09-17T08:34:55.845Z,4.75
2023-09-17T08:37:23.301Z,4.05
2023-09-17T08:39:50.433Z,4.40
2023-09-17T08:42:17.737Z,4.03
2023-09-17T08:44:44.907Z,4.05
2023-09-17T08:47:12.080Z,5.53
2023-09-17T08:49:39.683Z,4.30
2023-09-17T08:52:08.379Z,4.63
2023-09-17T08:54:40.070Z,4.47
2023-09-17T08:57:07.845Z,5.05
2023-09-17T08:59:36.171Z,4.15
2023-09-17T09:02:08.691Z,4.13
2023-09-17T09:04:36.197Z,4.40
2023-09-17T09:07:04.067Z,3.90
2023-09-17T09:09:31.796Z,4.15
2023-09-17T09:11:59.130Z,4.57
2023-09-17T09:14:27.196Z,3.70
2023-09-17T09:16:54.382Z,4.38
2023-09-17T09:19:21.654Z,4.45
2023-09-17T09:21:48.815Z,4.25
2023-09-17T09:24:17.791Z,4.70
2023-09-17T09:26:45.544Z,4.40
2023-09-17T09:29:12.696Z,4.05
2023-09-17T09:31:41.209Z,4.73
2023-09-17T09:34:08.728Z,4.35
2023-09-17T09:36:37.271Z,4.30
2023-09-17T09:39:04.565Z,4.70
2023-09-17T09:41:31.586Z,3.88
2023-09-17T09:44:00.443Z,5.18
2023-09-17T09:46:29.389Z,4.85
2023-09-17T09:49:01.299Z,4.15
2023-09-17T09:51:30.600Z,4.03
2023-09-17T09:54:00.042Z,3.80
2023-09-17T09:56:29.207Z,4.40
2023-09-17T09:58:57.106Z,4.32
2023-09-17T10:01:24.615Z,3.97
2023-09-17T10:03:52.416Z,4.15
2023-09-17T10:06:20.376Z,3.83
2023-09-17T10:08:48.226Z,4.20
2023-09-17T10:11:16.650Z,4.28
2023-09-17T10:13:43.918Z,4.28
2023-09-17T10:16:11.890Z,3.97
2023-09-17T10:18:40.115Z,4.50
2023-09-17T10:21:07.299Z,4.53
2023-09-17T10:23:35.563Z,4.43
2023-09-17T10:26:03.798Z,3.72
2023-09-17T10:28:35.414Z,4.40
2023-09-17T10:31:02.704Z,3.80
2023-09-17T10:33:32.868Z,3.85
2023-09-17T10:36:01.216Z,4.00
2023-09-17T10:38:29.171Z,3.70
2023-09-17T10:40:57.730Z,5.53
2023-09-17T10:43:26.517Z,3.33
2023-09-17T10:45:55.669Z,3.67
2023-09-17T10:48:23.785Z,3.83
2023-09-17T10:50:51.364Z,3.53
2023-09-17T10:53:18.945Z,3.50
2023-09-17T10:55:46.016Z,3.58
2023-09-17T10:58:17.675Z,3.60
2023-09-17T11:00:46.582Z,3.75
2023-09-17T11:03:17.799Z,3.80
2023-09-17T11:05:45.328Z,3.22
2023-09-17T11:08:12.538Z,3.42
2023-09-17T11:10:43.389Z,4.00
2023-09-17T11:13:12.962Z,3.10
2023-09-17T11:15:40.366Z,3.45
2023-09-17T11:18:08.745Z,3.67
2023-09-17T11:20:39.484Z,3.67
2023-09-17T11:23:06.766Z,3.65
2023-09-17T11:25:36.687Z,3.60
2023-09-17T11:28:12.311Z,3.28
2023-09-17T11:30:59.803Z,3.67
2023-09-17T11:33:27.850Z,3.70
2023-09-17T11:35:56.290Z,3.60
2023-09-17T11:38:24.612Z,3.30
2023-09-17T11:41:07.579Z,3.70
2023-09-17T11:43:36.253Z,4.93
2023-09-17T11:46:05.728Z,3.67
2023-09-17T11:48:34.637Z,4.03
2023-09-17T11:51:21.909Z,4.88
2023-09-17T11:53:51.729Z,3.92
2023-09-17T11:56:20.886Z,3.63
2023-09-17T11:58:58.461Z,3.50
2023-09-17T12:01:26.696Z,3.55
2023-09-17T12:03:55.383Z,3.67
2023-09-17T12:06:22.699Z,3.55
2023-09-17T12:08:50.145Z,3.38
2023-09-17T12:11:24.998Z,3.22
2023-09-17T12:13:54.924Z,4.00
2023-09-17T12:16:25.187Z,4.33
2023-09-17T12:19:03.756Z,3.70
2023-09-17T12:21:41.362Z,3.67
2023-09-17T12:24:09.946Z,3.53
2023-09-17T12:27:00.351Z,3.50
2023-09-17T12:29:27.502Z,3.67
2023-09-17T12:31:54.687Z,3.30
2023-09-17T12:34:21.849Z,3.45
2023-09-17T12:36:50.037Z,3.78
2023-09-17T12:39:17.330Z,3.33
2023-09-17T12:41:44.785Z,3.60
2023-09-17T12:44:13.434Z,3.47
2023-09-17T12:46:40.874Z,3.67
2023-09-17T12:49:08.609Z,3.72
2023-09-17T12:51:39.152Z,3.60
2023-09-17T12:54:07.167Z,3.85
2023-09-17T12:56:34.445Z,4.10
2023-09-17T12:59:02.765Z,3.47
2023-09-17T13:01:31.672Z,3.53
2023-09-17T13:04:00.859Z,3.88
2023-09-17T13:06:31.671Z,3.70
2023-09-17T13:08:59.043Z,3.90
2023-09-17T13:11:27.821Z,3.60
2023-09-17T13:13:55.397Z,3.40
2023-09-17T13:16:22.844Z,3.33
2023-09-17T13:18:51.200Z,3.53
2023-09-17T13:21:18.928Z,4.53
2023-09-17T13:23:46.190Z,3.72
2023-09-17T13:26:15.619Z,3.50
2023-09-17T13:28:43.070Z,3.78
2023-09-17T13:31:12.036Z,3.50
2023-09-17T13:33:40.241Z,3.30
2023-09-17T13:36:08.728Z,3.70
2023-09-17T13:38:35.976Z,3.88
2023-09-17T13:41:04.299Z,3.40
2023-09-17T13:43:31.470Z,3.53
2023-09-17T13:46:00.864Z,2.95
2023-09-17T13:48:28.208Z,3.45
2023-09-17T13:50:55.764Z,2.85
2023-09-17T13:53:23.702Z,2.80
2023-09-17T13:55:51.107Z,3.10
2023-09-17T13:58:18.382Z,2.85
2023-09-17T14:00:45.518Z,3.78
2023-09-17T14:03:14.318Z,2.95
2023-09-17T14:05:42.131Z,2.80
2023-09-17T14:08:09.238Z,2.70
2023-09-17T14:10:36.493Z,4.00
2023-09-17T14:13:04.802Z,3.08
2023-09-17T14:15:33.811Z,2.50
2023-09-17T14:18:01.286Z,2.75
2023-09-17T14:20:28.477Z,2.90
2023-09-17T14:22:56.971Z,3.40
2023-09-17T14:25:24.713Z,2.50
2023-09-17T14:27:52.184Z,2.65
2023-09-17T14:30:23.179Z,2.97
2023-09-17T14:32:52.594Z,3.63
2023-09-17T14:35:20.073Z,2.75
2023-09-17T14:37:47.859Z,3.00
2023-09-17T14:40:16.919Z,2.78
2023-09-17T14:42:44.423Z,2.67
2023-09-17T14:45:11.694Z,2.80
2023-09-17T14:47:40.389Z,3.67
2023-09-17T14:50:09.307Z,2.87
2023-09-17T14:52:37.080Z,2.60
2023-09-17T14:55:05.005Z,2.60
2023-09-17T14:57:37.020Z,3.28
2023-09-17T15:00:05.982Z,2.60
2023-09-17T15:02:33.583Z,2.55
2023-09-17T15:05:01.832Z,2.30
2023-09-17T15:07:29.159Z,2.47
2023-09-17T15:09:56.324Z,2.60
2023-09-17T15:12:23.574Z,2.75
2023-09-17T15:14:50.907Z,3.45
2023-09-17T15:17:18.282Z,2.53
2023-09-17T15:19:45.502Z,2.90
2023-09-17T15:22:12.653Z,2.83
2023-09-17T15:24:39.869Z,2.92
2023-09-17T15:27:07.018Z,3.40
2023-09-17T15:29:34.196Z,2.22
2023-09-17T15:32:01.406Z,2.55
2023-09-17T15:34:29.712Z,2.60
2023-09-17T15:36:56.963Z,3.95
2023-09-17T15:39:26.073Z,2.47
2023-09-17T15:41:55.007Z,2.50
2023-09-17T15:44:23.955Z,3.00
2023-09-17T15:46:51.414Z,2.42
2023-09-17T15:49:18.710Z,2.70
2023-09-17T15:51:45.889Z,3.67
2023-09-17T15:54:13.114Z,2.47
2023-09-17T15:56:42.137Z,2.70
2023-09-17T15:59:10.432Z,2.85
2023-09-17T16:01:40.235Z,2.73
2023-09-17T16:04:07.587Z,3.83
2023-09-17T16:06:34.878Z,2.38
2023-09-17T16:09:02.033Z,4.95
2023-09-17T16:11:29.187Z,3.10
2023-09-17T16:13:56.567Z,3.25
2023-09-17T16:16:23.891Z,2.67
2023-09-17T16:18:51.156Z,3.00
2023-09-17T16:21:18.963Z,2.88
2023-09-17T16:23:46.150Z,2.60
2023-09-17T16:26:15.392Z,13.68
2023-09-17T16:28:42.630Z,22.38
2023-09-17T16:31:09.888Z,26.37
2023-09-17T16:33:37.143Z,33.47
2023-09-17T16:36:04.415Z,17.08
2023-09-17T16:38:31.904Z,22.42
2023-09-17T16:41:02.677Z,7.07
2023-09-17T16:43:30.496Z,26.65
2023-09-17T16:45:57.870Z,22.85
2023-09-17T16:48:26.897Z,20.85
2023-09-17T16:50:54.345Z,16.50
2023-09-17T16:53:21.730Z,11.60
2023-09-17T16:55:48.985Z,15.63
2023-09-17T16:58:19.123Z,12.70
2023-09-17T17:00:49.377Z,14.77
2023-09-17T17:03:16.858Z,10.18
2023-09-17T17:05:45.742Z,8.05
2023-09-17T17:08:13.647Z,13.30
2023-09-17T17:10:42.003Z,7.32
2023-09-17T17:13:11.808Z,15.80
2023-09-17T17:15:39.129Z,14.73
2023-09-17T17:18:10.270Z,15.32
2023-09-17T17:20:37.485Z,11.15
2023-09-17T17:23:04.741Z,19.88
2023-09-17T17:25:33.374Z,5.93
2023-09-17T17:28:00.601Z,11.90
2023-09-17T17:30:27.961Z,22.33
2023-09-17T17:32:55.257Z,7.82
2023-09-17T17:35:22.864Z,11.10
2023-09-17T17:37:50.226Z,14.10
2023-09-17T17:40:23.355Z,8.88
2023-09-17T17:42:51.270Z,8.10
2023-09-17T17:45:18.605Z,10.63
2023-09-17T17:47:45.847Z,9.95
2023-09-17T17:50:14.876Z,9.20
2023-09-17T17:52:45.090Z,4.80
2023-09-17T17:55:12.336Z,5.10
2023-09-17T17:57:39.597Z,9.05
2023-09-17T18:00:07.188Z,10.52
2023-09-17T18:02:34.732Z,11.65
2023-09-17T18:05:06.160Z,10.13
2023-09-17T18:07:35.007Z,9.15
2023-09-17T18:10:07.942Z,8.32
2023-09-17T18:12:35.763Z,7.17
2023-09-17T18:15:04.829Z,7.18
2023-09-17T18:17:32.250Z,6.72
2023-09-17T18:19:59.584Z,6.55
2023-09-17T18:22:26.888Z,6.18
2023-09-17T18:24:54.080Z,6.20
2023-09-17T18:27:21.536Z,4.13
2023-09-17T18:29:48.784Z,6.60
2023-09-17T18:32:16.070Z,4.22
2023-09-17T18:34:43.305Z,4.88
2023-09-17T18:37:10.548Z,3.72
2023-09-17T18:39:37.666Z,7.07
2023-09-17T18:42:04.851Z,4.88
2023-09-17T18:44:31.961Z,3.83
2023-09-17T18:46:59.232Z,4.75
2023-09-17T18:49:26.589Z,3.72
2023-09-17T18:51:54.714Z,5.47
2023-09-17T18:54:22.070Z,4.18
2023-09-17T18:56:49.284Z,4.40
2023-09-17T18:59:17.004Z,4.13
2023-09-17T19:01:44.501Z,4.13
2023-09-17T19:04:11.690Z,5.93
2023-09-17T19:06:39.510Z,8.25
2023-09-17T19:09:07.263Z,7.50
2023-09-17T19:11:35.150Z,10.25
2023-09-17T19:14:03.110Z,9.97
2023-09-17T19:16:30.941Z,11.80
2023-09-17T19:18:58.645Z,12.30
2023-09-17T19:21:26.178Z,9.70
2023-09-17T19:23:54.849Z,9.15
2023-09-17T19:26:22.486Z,7.75
2023-09-17T19:28:49.957Z,8.57
2023-09-17T19:31:17.181Z,8.38
2023-09-17T19:33:44.450Z,8.38
2023-09-17T19:36:11.839Z,5.25
2023-09-17T19:38:39.623Z,4.22
2023-09-17T19:41:07.387Z,4.72
2023-09-17T19:43:35.228Z,4.80
2023-09-17T19:46:02.862Z,4.53
2023-09-17T19:48:30.278Z,4.55
2023-09-17T19:50:58.187Z,4.68
2023-09-17T19:53:25.673Z,4.78
2023-09-17T19:55:53.096Z,6.05
2023-09-17T19:58:20.321Z,4.90
2023-09-17T20:00:47.571Z,5.28
2023-09-17T20:03:14.799Z,7.37
2023-09-17T20:05:42.079Z,4.55
2023-09-17T20:08:10.724Z,4.60
2023-09-17T20:10:38.495Z,4.88
2023-09-17T20:13:06.166Z,4.70
2023-09-17T20:15:33.398Z,5.13
2023-09-17T20:18:00.694Z,4.82
2023-09-17T20:20:29.594Z,4.80
2023-09-17T20:22:56.944Z,4.93
2023-09-17T20:25:24.251Z,5.13
2023-09-17T20:27:55.675Z,4.65
2023-09-17T20:30:22.974Z,4.65
2023-09-17T20:32:50.156Z,4.85
2023-09-17T20:35:17.467Z,4.28
2023-09-17T20:37:44.650Z,4.40
2023-09-17T20:40:12.154Z,5.10
2023-09-17T20:42:39.783Z,5.03
2023-09-17T20:45:07.518Z,5.40
2023-09-17T20:47:34.825Z,5.30
2023-09-17T20:50:03.884Z,4.53
2023-09-17T20:52:30.960Z,5.70
2023-09-17T20:54:58.362Z,5.50
2023-09-17T20:57:27.659Z,5.22
2023-09-17T20:59:57.621Z,5.82
2023-09-17T21:02:25.630Z,6.30
2023-09-17T21:04:58.701Z,4.65
2023-09-17T21:07:26.391Z,5.90
2023-09-17T21:09:54.540Z,6.05
2023-09-17T21:12:22.206Z,6.95
2023-09-17T21:14:49.405Z,4.82
2023-09-17T21:17:16.892Z,6.20
2023-09-17T21:19:44.131Z,6.07
2023-09-17T21:22:12.423Z,5.30
2023-09-17T21:24:39.840Z,5.10
2023-09-17T21:27:07.120Z,5.18
2023-09-17T21:29:35.827Z,4.68
2023-09-17T21:32:03.428Z,4.82
2023-09-17T21:34:30.832Z,5.20
2023-09-17T21:36:58.075Z,5.05
2023-09-17T21:39:29.946Z,4.65
2023-09-17T21:41:57.543Z,5.10
2023-09-17T21:44:25.017Z,6.22
2023-09-17T21:46:56.126Z,5.00
2023-09-17T21:49:23.462Z,6.00
2023-09-17T21:51:50.629Z,7.37
2023-09-17T21:54:18.657Z,6.22
2023-09-17T21:56:50.841Z,5.95
2023-09-17T21:59:20.533Z,5.83
2023-09-17T22:01:47.937Z,7.05
2023-09-17T22:04:15.934Z,5.10
2023-09-17T22:06:43.401Z,5.65
2023-09-17T22:09:10.829Z,6.78
2023-09-17T22:11:38.031Z,5.30
2023-09-17T22:14:05.196Z,5.35
2023-09-17T22:16:36.490Z,6.05
2023-09-17T22:19:04.115Z,5.07
2023-09-17T22:21:31.236Z,5.57
2023-09-17T22:23:58.439Z,5.45
2023-09-17T22:26:25.673Z,5.15
2023-09-17T22:28:53.077Z,5.72
2023-09-17T22:31:22.221Z,6.40
2023-09-17T22:33:51.239Z,6.00
2023-09-17T22:36:18.415Z,5.03
2023-09-17T22:38:49.148Z,6.68
2023-09-17T22:41:17.286Z,5.35
2023-09-17T22:43:45.020Z,5.57
2023-09-17T22:46:12.177Z,4.85
2023-09-17T22:48:39.352Z,5.95
2023-09-17T22:51:07.500Z,5.00
2023-09-17T22:53:34.850Z,5.40
2023-09-17T22:56:01.994Z,4.85
2023-09-17T22:58:29.282Z,4.97
2023-09-17T23:00:56.559Z,6.20
2023-09-17T23:03:23.796Z,5.13
2023-09-17T23:05:51.006Z,5.20
2023-09-17T23:08:20.981Z,5.50
2023-09-17T23:10:48.152Z,6.13
2023-09-17T23:13:15.645Z,5.70
2023-09-17T23:15:42.789Z,5.65
2023-09-17T23:18:10.104Z,5.68
2023-09-17T23:20:37.381Z,5.47
2023-09-17T23:23:05.557Z,5.80
2023-09-17T23:25:32.765Z,6.27
2023-09-17T23:28:01.533Z,5.38
2023-09-17T23:30:28.704Z,5.97
2023-09-17T23:32:55.866Z,5.78
2023-09-17T23:35:24.266Z,5.60
2023-09-17T23:37:51.425Z,6.45
2023-09-17T23:40:18.663Z,5.07
2023-09-17T23:42:46.169Z,5.60
2023-09-17T23:45:14.339Z,5.40
2023-09-17T23:47:41.571Z,5.97
2023-09-17T23:50:11.123Z,5.03
2023-09-17T23:52:39.763Z,5.65
2023-09-17T23:55:07.650Z,7.32
2023-09-17T23:57:34.738Z,7.53
